Time;durP1;ratioP1;P1;durP2;ratioP2;P2;SDS_P1;SDS_P2;PMS_P1;PMS_P2;Temp;Humidity;BMP_temperature;BMP_pressure;BME280_temperature;BME280_humidity;BME280_pressure;Samples;Min_cycle;Max_cycle;Signal;HPM_P1;HPM_P2
2023/02/12 00:01:10;;;;;;;64.82;34.95;;;9.80;99.90;;;;;;5033653;28;20025;-69
2023/02/12 00:03:37;;;;;;;60.22;34.03;;;9.70;99.90;;;;;;5031478;28;20052;-69
2023/02/12 00:06:03;;;;;;;54.60;32.33;;;9.70;99.90;;;;;;5030392;28;20067;-69
2023/02/12 00:08:29;;;;;;;57.08;31.73;;;9.70;99.90;;;;;;5028350;28;20025;-69
2023/02/12 00:10:55;;;;;;;56.55;34.75;;;9.70;99.90;;;;;;5032867;28;20365;-69
2023/02/12 00:13:22;;;;;;;51.28;30.45;;;9.70;99.90;;;;;;5030086;28;20036;-69
2023/02/12 00:15:48;;;;;;;52.00;30.38;;;9.70;99.90;;;;;;5033030;28;20021;-69
2023/02/12 00:18:14;;;;;;;50.05;29.65;;;9.70;99.90;;;;;;5028121;28;20091;-69
2023/02/12 00:20:39;;;;;;;47.10;28.77;;;9.80;99.90;;;;;;5029589;28;20139;-69
2023/02/12 00:23:05;;;;;;;51.95;28.67;;;9.70;99.90;;;;;;5030884;28;20017;-69
2023/02/12 00:25:31;;;;;;;54.13;31.33;;;9.60;99.90;;;;;;5030184;28;20044;-70
2023/02/12 00:27:58;;;;;;;50.65;29.40;;;9.60;99.90;;;;;;5029923;28;20036;-69
2023/02/12 00:30:24;;;;;;;45.25;27.13;;;9.70;99.90;;;;;;5032137;28;20385;-69
2023/02/12 00:32:49;;;;;;;45.17;26.00;;;9.70;99.90;;;;;;5027994;28;20029;-69
2023/02/12 00:35:15;;;;;;;41.30;24.52;;;9.60;99.90;;;;;;5031230;28;20029;-69
2023/02/12 00:37:40;;;;;;;46.40;25.02;;;9.60;99.90;;;;;;5030528;28;20021;-69
2023/02/12 00:40:07;;;;;;;41.63;25.38;;;9.60;99.90;;;;;;5028955;28;20040;-69
2023/02/12 00:42:32;;;;;;;39.10;23.98;;;9.60;99.90;;;;;;5033082;28;20026;-69
2023/02/12 00:44:58;;;;;;;40.00;24.00;;;9.60;99.90;;;;;;5033070;28;20021;-69
2023/02/12 00:47:23;;;;;;;39.05;23.75;;;9.60;99.90;;;;;;5032904;28;20037;-69
2023/02/12 00:49:49;;;;;;;44.17;24.67;;;9.70;99.90;;;;;;5032494;28;20029;-69
2023/02/12 00:52:15;;;;;;;41.95;24.48;;;9.70;99.90;;;;;;5027243;28;20029;-69
2023/02/12 00:54:40;;;;;;;41.50;25.88;;;9.70;99.90;;;;;;5029100;28;20037;-69
2023/02/12 00:57:06;;;;;;;42.65;23.95;;;9.70;99.90;;;;;;5031713;28;20466;-69
2023/02/12 00:59:34;;;;;;;41.60;22.95;;;9.60;99.90;;;;;;5033359;28;20777;-69
2023/02/12 01:02:00;;;;;;;38.80;24.05;;;9.60;99.90;;;;;;5030352;28;20025;-69
2023/02/12 01:04:26;;;;;;;40.22;23.48;;;9.60;99.90;;;;;;5029722;28;20025;-69
2023/02/12 01:06:51;;;;;;;35.33;22.65;;;9.60;99.90;;;;;;5031150;28;20026;-69
2023/02/12 01:09:17;;;;;;;41.45;24.67;;;9.60;99.90;;;;;;5028698;28;20133;-69
2023/02/12 01:11:43;;;;;;;35.63;22.52;;;9.60;99.90;;;;;;5033587;28;20051;-69
2023/02/12 01:14:08;;;;;;;39.13;23.10;;;9.50;99.90;;;;;;5032791;28;20127;-69
2023/02/12 01:16:35;;;;;;;38.42;23.70;;;9.40;99.90;;;;;;5032106;28;20462;-69
2023/02/12 01:19:01;;;;;;;38.92;24.08;;;9.40;99.90;;;;;;5034238;28;20048;-69
2023/02/12 01:21:29;;;;;;;40.67;23.73;;;9.50;99.90;;;;;;5033464;28;20584;-69
2023/02/12 01:23:57;;;;;;;35.42;21.98;;;9.50;99.90;;;;;;5035521;28;20053;-69
2023/02/12 01:26:23;;;;;;;41.35;23.85;;;9.60;99.90;;;;;;5035199;28;20044;-69
2023/02/12 01:28:52;;;;;;;36.70;23.05;;;9.60;99.90;;;;;;5031487;28;20402;-69
2023/02/12 01:31:20;;;;;;;44.60;25.27;;;9.60;99.90;;;;;;5032638;28;20073;-69
2023/02/12 01:33:51;;;;;;;41.00;24.40;;;9.60;99.90;;;;;;5037085;28;20025;-69
2023/02/12 01:36:17;;;;;;;34.40;22.88;;;9.60;99.90;;;;;;5035294;28;20075;-69
2023/02/12 01:38:42;;;;;;;41.13;23.45;;;9.60;99.90;;;;;;5033010;28;20116;-69
2023/02/12 01:41:20;;;;;;;37.95;23.25;;;9.60;99.90;;;;;;5033124;28;20397;-69
2023/02/12 01:44:11;;;;;;;41.03;23.85;;;9.60;99.90;;;;;;5030896;28;20020;-69
2023/02/12 01:46:38;;;;;;;36.97;23.33;;;9.60;99.90;;;;;;5032959;28;20029;-69
2023/02/12 01:49:12;;;;;;;42.78;24.35;;;9.60;99.90;;;;;;5034570;28;20428;-69
2023/02/12 01:51:39;;;;;;;35.42;21.85;;;9.60;99.90;;;;;;5032662;28;20036;-69
2023/02/12 01:54:07;;;;;;;35.85;21.98;;;9.60;99.90;;;;;;5028484;28;20021;-69
2023/02/12 01:56:33;;;;;;;34.10;20.73;;;9.60;99.90;;;;;;5031462;28;20086;-69
2023/02/12 01:58:59;;;;;;;35.80;21.88;;;9.60;99.90;;;;;;5031602;28;20037;-69
2023/02/12 02:01:28;;;;;;;42.05;23.52;;;9.60;99.90;;;;;;5032361;28;20021;-68
2023/02/12 02:03:59;;;;;;;36.72;24.77;;;9.60;99.90;;;;;;5033440;28;20060;-69
2023/02/12 02:06:34;;;;;;;39.25;23.50;;;9.60;99.90;;;;;;5031181;28;20049;-69
2023/02/12 02:09:01;;;;;;;39.50;22.33;;;9.40;99.90;;;;;;5033098;28;20579;-69
2023/02/12 02:17:23;;;;;;;38.78;21.77;;;9.40;99.90;;;;;;5032669;28;20035;-69
2023/02/12 02:19:48;;;;;;;33.05;21.65;;;9.40;99.90;;;;;;5030979;28;20038;-69
2023/02/12 02:22:29;;;;;;;37.10;23.15;;;9.40;99.90;;;;;;5031638;28;20029;-69
2023/02/12 02:25:29;;;;;;;39.38;23.00;;;9.50;99.90;;;;;;5032163;28;20079;-69
2023/02/12 02:28:05;;;;;;;35.90;22.08;;;9.50;99.90;;;;;;5031852;28;20474;-69
2023/02/12 02:30:45;;;;;;;37.13;21.38;;;9.40;99.90;;;;;;5029739;28;20501;-69
2023/02/12 02:33:39;;;;;;;33.88;21.60;;;9.50;99.90;;;;;;5031707;28;20079;-68
2023/02/12 02:36:17;;;;;;;39.03;22.00;;;9.50;99.90;;;;;;5032893;28;20020;-68
2023/02/12 02:38:51;;;;;;;39.97;23.23;;;9.50;99.90;;;;;;5034320;28;20078;-69
2023/02/12 02:41:22;;;;;;;34.83;22.33;;;9.50;99.90;;;;;;5035267;28;20025;-69
2023/02/12 02:43:50;;;;;;;37.70;21.42;;;9.50;99.90;;;;;;5031891;28;20041;-69
2023/02/12 02:46:31;;;;;;;37.60;22.42;;;9.50;99.90;;;;;;5035775;28;20017;-69
2023/02/12 02:49:06;;;;;;;37.58;22.05;;;9.50;99.90;;;;;;5034389;28;20029;-68
2023/02/12 02:51:36;;;;;;;35.10;20.83;;;9.40;99.90;;;;;;5031209;28;20061;-69
2023/02/12 02:54:32;;;;;;;34.97;21.05;;;9.40;99.90;;;;;;5031014;28;20053;-68
2023/02/12 02:57:15;;;;;;;37.78;22.48;;;9.40;99.90;;;;;;5021928;28;20068;-69
2023/02/12 02:59:51;;;;;;;36.40;22.50;;;9.40;99.90;;;;;;5032088;28;20071;-68
2023/02/12 03:02:34;;;;;;;40.60;24.17;;;9.40;99.90;;;;;;5026619;28;20028;-69
2023/02/12 03:05:02;;;;;;;;;;;9.40;99.90;;;;;;5033842;28;20102;-69
2023/02/12 03:07:34;;;;;;;39.10;22.88;;;9.40;99.90;;;;;;5031490;28;19909;-69
2023/02/12 03:10:09;;;;;;;39.42;23.75;;;9.50;99.90;;;;;;5031168;28;20025;-69
2023/02/12 03:12:51;;;;;;;36.75;22.52;;;9.40;99.90;;;;;;5032698;28;20036;-70
2023/02/12 03:15:24;;;;;;;36.78;22.10;;;9.40;99.90;;;;;;5036027;28;20041;-69
2023/02/12 03:17:50;;;;;;;37.75;21.90;;;9.40;99.90;;;;;;5050835;28;20021;-69
2023/02/12 03:20:45;;;;;;;35.17;22.33;;;9.40;99.90;;;;;;5041432;28;20036;-69
2023/02/12 03:23:25;;;;;;;37.05;23.40;;;9.20;99.90;;;;;;5038478;28;20502;-68
2023/02/12 03:26:03;;;;;;;36.25;23.17;;;9.30;99.90;;;;;;5043397;28;20108;-68
2023/02/12 03:28:32;;;;;;;36.58;23.08;;;9.40;99.90;;;;;;5041155;28;20053;-69
2023/02/12 03:31:10;;;;;;;37.88;22.95;;;9.40;99.90;;;;;;5046768;28;20036;-68
2023/02/12 03:33:58;;;;;;;37.00;22.40;;;9.40;99.90;;;;;;5040780;28;20065;-68
2023/02/12 03:36:36;;;;;;;37.25;23.55;;;9.30;99.90;;;;;;5040240;28;20030;-68
2023/02/12 03:39:27;;;;;;;36.60;22.50;;;9.40;99.90;;;;;;5045059;28;20033;-69
2023/02/12 03:42:00;;;;;;;38.78;21.05;;;9.40;99.90;;;;;;5046033;28;20025;-68
2023/02/12 03:44:49;;;;;;;40.35;23.15;;;9.30;99.90;;;;;;5037340;28;20083;-68
2023/02/12 03:48:01;;;;;;;36.90;22.23;;;9.20;99.90;;;;;;5034217;28;20041;-68
2023/02/12 03:50:37;;;;;;;33.45;20.75;;;9.20;99.90;;;;;;5030280;28;20017;-69
2023/02/12 03:53:04;;;;;;;37.30;20.50;;;9.20;99.90;;;;;;5029363;28;20035;-68
2023/02/12 03:55:34;;;;;;;34.85;21.63;;;9.30;99.90;;;;;;5044015;28;20045;-68
2023/02/12 03:58:02;;;;;;;35.17;21.55;;;9.30;99.90;;;;;;5046723;28;20020;-68
2023/02/12 04:00:28;;;;;;;40.92;21.95;;;9.40;99.90;;;;;;5040636;28;20032;-69
2023/02/12 04:02:54;;;;;;;37.25;22.45;;;9.40;99.90;;;;;;5042323;28;20020;-69
2023/02/12 04:05:25;;;;;;;32.40;21.05;;;9.40;99.90;;;;;;5051123;28;20029;-68
2023/02/12 04:07:53;;;;;;;36.30;21.83;;;9.30;99.90;;;;;;5050929;28;20115;-69
2023/02/12 04:10:26;;;;;;;33.47;20.58;;;9.30;99.90;;;;;;5043981;28;20033;-68
2023/02/12 04:12:59;;;;;;;38.35;21.67;;;9.30;99.90;;;;;;5041397;28;20527;-69
2023/02/12 04:16:06;;;;;;;34.60;20.27;;;9.20;99.90;;;;;;5038637;28;20278;-68
2023/02/12 04:18:55;;;;;;;39.45;22.70;;;9.30;99.90;;;;;;5040284;28;20110;-69
2023/02/12 04:21:51;;;;;;;34.53;21.02;;;9.30;99.90;;;;;;5035980;28;20112;-68
2023/02/12 04:24:35;;;;;;;35.83;21.90;;;9.30;99.90;;;;;;5040309;28;20036;-68
2023/02/12 04:27:21;;;;;;;35.30;21.45;;;9.30;99.90;;;;;;5052044;28;20090;-68
2023/02/12 04:29:56;;;;;;;35.17;20.92;;;9.20;99.90;;;;;;5045212;28;20033;-69
2023/02/12 04:32:40;;;;;;;35.80;21.67;;;9.20;99.90;;;;;;5048925;28;20394;-69
2023/02/12 04:35:39;;;;;;;36.65;22.38;;;9.20;99.90;;;;;;5040764;28;20370;-68
2023/02/12 04:38:33;;;;;;;38.53;21.85;;;9.20;99.90;;;;;;5045637;28;20108;-68
2023/02/12 04:40:59;;;;;;;36.17;22.27;;;9.20;99.90;;;;;;5043377;28;20043;-69
2023/02/12 04:43:29;;;;;;;38.17;23.55;;;9.30;99.90;;;;;;5043000;28;20100;-68
2023/02/12 04:45:55;;;;;;;35.78;23.38;;;9.30;99.90;;;;;;5045568;28;20025;-68
2023/02/12 04:48:21;;;;;;;38.28;23.50;;;9.20;99.90;;;;;;5055117;28;20530;-68
2023/02/12 04:50:47;;;;;;;42.97;25.23;;;9.30;99.90;;;;;;5054770;28;20460;-69
2023/02/12 04:53:13;;;;;;;37.70;23.15;;;9.30;99.90;;;;;;5052844;28;20036;-69
2023/02/12 04:55:38;;;;;;;42.40;26.05;;;9.30;99.90;;;;;;5042767;28;20032;-69
2023/02/12 04:58:04;;;;;;;39.03;24.30;;;9.20;99.90;;;;;;5056163;28;20072;-69
2023/02/12 05:00:30;;;;;;;36.85;24.10;;;9.30;99.90;;;;;;5046971;28;20112;-69
2023/02/12 05:02:55;;;;;;;44.38;24.80;;;9.30;99.90;;;;;;5049260;28;20599;-69
2023/02/12 05:05:21;;;;;;;38.33;23.90;;;9.30;99.90;;;;;;5041246;28;20094;-69
2023/02/12 05:07:47;;;;;;;41.08;23.90;;;9.20;99.90;;;;;;5045423;28;20386;-68
2023/02/12 05:10:13;;;;;;;37.38;24.15;;;9.30;99.90;;;;;;5052798;28;20382;-69
2023/02/12 05:12:38;;;;;;;37.33;23.80;;;9.30;99.90;;;;;;5048778;28;20363;-69
2023/02/12 05:15:04;;;;;;;38.40;23.42;;;9.30;99.90;;;;;;5044377;28;20068;-69
2023/02/12 05:17:30;;;;;;;39.50;24.08;;;9.30;99.90;;;;;;5042798;28;20533;-69
2023/02/12 05:19:55;;;;;;;39.13;24.98;;;9.30;99.90;;;;;;5055482;28;20086;-69
2023/02/12 05:22:21;;;;;;;39.72;24.58;;;9.30;99.90;;;;;;5042191;28;20267;-69
2023/02/12 05:24:47;;;;;;;41.17;24.58;;;9.30;99.90;;;;;;5049011;28;20515;-69
2023/02/12 05:27:12;;;;;;;43.22;25.75;;;9.30;99.90;;;;;;5049759;28;20381;-69
2023/02/12 05:29:38;;;;;;;41.92;25.23;;;9.30;99.90;;;;;;5046742;28;20524;-68
2023/02/12 05:32:05;;;;;;;40.92;24.20;;;9.30;99.90;;;;;;5050498;28;20021;-69
2023/02/12 05:34:31;;;;;;;42.70;24.98;;;9.30;99.90;;;;;;5043704;28;20488;-69
2023/02/12 05:36:56;;;;;;;43.78;25.83;;;9.30;99.90;;;;;;5046674;28;20606;-68
2023/02/12 05:39:22;;;;;;;49.42;28.17;;;9.30;99.90;;;;;;5050078;28;20088;-68
2023/02/12 05:41:48;;;;;;;48.03;25.88;;;9.20;99.90;;;;;;5050506;28;20028;-69
2023/02/12 05:44:14;;;;;;;44.97;26.05;;;9.20;99.90;;;;;;5047821;28;20017;-68
2023/02/12 05:46:40;;;;;;;48.53;26.80;;;9.30;99.90;;;;;;5051215;28;20083;-69
2023/02/12 05:49:06;;;;;;;46.28;26.80;;;9.20;99.90;;;;;;5049515;28;20033;-69
2023/02/12 05:51:31;;;;;;;44.45;26.55;;;9.20;99.90;;;;;;5044594;28;20076;-69
2023/02/12 05:54:00;;;;;;;49.13;29.38;;;9.20;99.90;;;;;;5044857;28;20029;-68
2023/02/12 05:56:31;;;;;;;44.00;25.75;;;9.30;99.90;;;;;;5037076;28;20025;-69
2023/02/12 05:59:06;;;;;;;46.05;28.30;;;9.30;99.90;;;;;;5051546;28;20036;-69
2023/02/12 06:01:40;;;;;;;49.90;27.40;;;9.30;99.90;;;;;;5051948;28;20017;-68
2023/02/12 06:04:11;;;;;;;47.00;27.35;;;9.20;99.90;;;;;;5040667;28;20029;-68
2023/02/12 06:06:40;;;;;;;48.13;27.35;;;9.20;99.90;;;;;;5046310;28;20032;-68
2023/02/12 06:09:06;;;;;;;50.35;28.20;;;9.20;99.90;;;;;;5037411;28;20409;-69
2023/02/12 06:11:32;;;;;;;49.00;28.15;;;9.30;99.90;;;;;;5042444;28;20028;-69
2023/02/12 06:14:01;;;;;;;47.88;28.10;;;9.30;99.90;;;;;;5049810;28;20032;-69
2023/02/12 06:16:27;;;;;;;51.58;27.85;;;9.30;99.90;;;;;;5047378;28;20124;-69
2023/02/12 06:18:55;;;;;;;48.78;27.90;;;9.30;99.90;;;;;;5040796;28;20466;-69
2023/02/12 06:21:22;;;;;;;46.58;27.50;;;9.30;99.90;;;;;;5050992;28;20359;-69
2023/02/12 06:23:48;;;;;;;49.90;26.38;;;9.30;99.90;;;;;;5042723;28;20030;-69
2023/02/12 06:26:15;;;;;;;46.83;25.50;;;9.30;99.90;;;;;;5048727;28;20021;-68
2023/02/12 06:28:40;;;;;;;43.00;26.42;;;9.30;99.90;;;;;;5043134;28;20097;-69
2023/02/12 06:31:21;;;;;;;44.10;24.95;;;9.30;99.90;;;;;;5042608;28;20175;-69
2023/02/12 06:33:47;;;;;;;44.97;25.23;;;9.30;99.90;;;;;;5040924;28;20084;-69
2023/02/12 06:36:13;;;;;;;40.47;23.17;;;9.30;99.90;;;;;;5048866;28;20028;-69
2023/02/12 06:38:39;;;;;;;38.92;22.75;;;9.20;99.90;;;;;;5045360;28;20385;-68
2023/02/12 06:41:04;;;;;;;37.60;23.33;;;9.20;99.90;;;;;;5041013;28;20129;-69
2023/02/12 06:43:30;;;;;;;42.05;23.30;;;9.20;99.90;;;;;;5044446;28;20029;-69
2023/02/12 06:45:59;;;;;;;39.80;24.20;;;9.20;99.90;;;;;;5043886;28;20028;-69
2023/02/12 06:48:24;;;;;;;39.03;23.23;;;9.10;99.90;;;;;;5041223;28;20023;-69
2023/02/12 06:50:50;;;;;;;41.22;23.60;;;9.20;99.90;;;;;;5037625;28;20112;-69
2023/02/12 06:53:15;;;;;;;44.40;25.67;;;9.10;99.90;;;;;;5043112;28;20425;-69
2023/02/12 06:55:41;;;;;;;44.30;24.20;;;9.20;99.90;;;;;;5049070;28;20024;-69
2023/02/12 06:58:06;;;;;;;52.25;26.85;;;9.20;99.90;;;;;;5039716;28;20033;-69
2023/02/12 07:00:32;;;;;;;46.85;26.30;;;9.10;99.90;;;;;;5038365;28;20489;-69
2023/02/12 07:02:57;;;;;;;51.78;29.25;;;9.20;99.90;;;;;;5045197;28;20071;-69
2023/02/12 07:05:23;;;;;;;48.05;27.33;;;9.10;99.90;;;;;;5045927;28;20597;-69
2023/02/12 07:07:49;;;;;;;47.92;27.63;;;9.10;99.90;;;;;;5045182;28;20373;-69
2023/02/12 07:10:16;;;;;;;43.40;26.70;;;9.10;99.90;;;;;;5038407;28;20391;-68
2023/02/12 07:12:41;;;;;;;49.00;27.00;;;9.20;99.90;;;;;;5043419;28;20475;-69
2023/02/12 07:15:08;;;;;;;49.83;26.48;;;9.20;99.90;;;;;;5045109;28;20104;-69
2023/02/12 07:17:33;;;;;;;50.25;26.58;;;9.20;99.90;;;;;;5042866;28;20036;-69
2023/02/12 07:19:59;;;;;;;48.50;25.73;;;9.20;99.90;;;;;;5046480;28;20037;-69
2023/02/12 07:22:24;;;;;;;43.85;26.35;;;9.20;99.90;;;;;;5046659;28;20021;-69
2023/02/12 07:24:50;;;;;;;50.60;27.88;;;9.10;99.90;;;;;;5046166;28;20029;-69
2023/02/12 07:27:16;;;;;;;50.17;27.13;;;9.10;99.90;;;;;;5041029;28;20368;-69
2023/02/12 07:29:42;;;;;;;54.05;28.00;;;9.10;99.90;;;;;;5042655;28;20099;-69
2023/02/12 07:32:07;;;;;;;47.55;26.95;;;9.20;99.90;;;;;;5037881;28;20112;-69
2023/02/12 07:34:33;;;;;;;46.97;27.98;;;9.20;99.90;;;;;;5043521;28;20108;-69
2023/02/12 07:36:58;;;;;;;51.80;28.92;;;9.20;99.90;;;;;;5041575;28;20244;-69
2023/02/12 07:39:24;;;;;;;50.25;28.73;;;9.20;99.90;;;;;;5043038;28;20080;-69
2023/02/12 07:41:50;;;;;;;50.33;28.55;;;9.30;99.90;;;;;;5045979;28;20025;-69
2023/02/12 07:44:15;;;;;;;49.08;27.90;;;9.20;99.90;;;;;;5042388;28;20025;-69
2023/02/12 07:46:46;;;;;;;49.67;27.08;;;9.20;99.90;;;;;;5043498;28;20029;-69
2023/02/12 07:49:13;;;;;;;45.75;26.05;;;9.20;99.90;;;;;;5043251;28;20402;-69
2023/02/12 07:51:39;;;;;;;42.42;26.25;;;9.20;99.90;;;;;;5043808;28;20067;-69
2023/02/12 07:54:05;;;;;;;42.50;24.15;;;9.20;99.90;;;;;;5039971;28;20041;-69
2023/02/12 07:56:34;;;;;;;42.70;25.98;;;9.20;99.90;;;;;;5040072;28;20524;-69
2023/02/12 07:59:02;;;;;;;42.92;25.80;;;9.20;99.90;;;;;;5041373;28;20118;-69
2023/02/12 08:01:29;;;;;;;48.42;27.17;;;9.30;99.90;;;;;;5041486;28;20029;-69
2023/02/12 08:04:00;;;;;;;43.42;26.65;;;9.30;99.90;;;;;;5043386;28;20052;-69
2023/02/12 08:06:28;;;;;;;49.58;26.90;;;9.40;99.90;;;;;;5042832;28;20059;-69
2023/02/12 08:08:56;;;;;;;42.78;25.17;;;9.40;99.90;;;;;;5042049;28;20355;-69
2023/02/12 08:11:22;;;;;;;30.33;18.88;;;9.40;99.90;;;;;;5039676;28;20040;-69
2023/02/12 08:13:48;;;;;;;48.97;27.00;;;9.50;99.90;;;;;;5044890;28;20083;-69
2023/02/12 08:16:17;;;;;;;50.80;27.40;;;9.50;99.90;;;;;;5037892;28;20036;-69
2023/02/12 08:18:43;;;;;;;53.22;29.35;;;9.50;99.90;;;;;;5046834;28;20486;-68
2023/02/12 08:21:11;;;;;;;51.75;28.20;;;9.50;99.90;;;;;;5041055;28;20477;-68
2023/02/12 08:23:37;;;;;;;44.80;26.17;;;9.50;99.90;;;;;;5045041;28;20030;-68
2023/02/12 08:26:30;;;;;;;46.95;27.75;;;9.50;99.90;;;;;;5040939;28;20028;-69
2023/02/12 08:29:06;;;;;;;46.40;27.08;;;9.40;99.90;;;;;;5037711;28;20033;-69
2023/02/12 08:31:35;;;;;;;43.90;25.42;;;9.30;99.90;;;;;;5045986;28;20040;-69
2023/02/12 08:34:01;;;;;;;42.20;25.65;;;9.30;99.90;;;;;;5046721;28;20025;-69
2023/02/12 08:36:29;;;;;;;41.80;24.65;;;9.40;99.90;;;;;;5044390;28;20675;-69
2023/02/12 08:38:58;;;;;;;45.45;28.02;;;9.40;99.90;;;;;;5035447;28;20038;-69
2023/02/12 08:41:26;;;;;;;51.13;28.90;;;9.40;99.90;;;;;;5044959;28;20373;-68
2023/02/12 08:43:54;;;;;;;49.05;29.17;;;9.40;99.90;;;;;;5049689;28;20028;-68
2023/02/12 08:46:22;;;;;;;54.38;30.13;;;9.40;99.90;;;;;;5043520;28;20052;-68
2023/02/12 08:48:50;;;;;;;53.35;31.10;;;9.50;99.90;;;;;;5043403;28;20086;-69
2023/02/12 08:51:18;;;;;;;55.92;32.45;;;9.60;99.90;;;;;;5048512;28;20478;-69
2023/02/12 08:53:46;;;;;;;52.28;31.38;;;9.60;99.90;;;;;;5044762;28;20496;-69
2023/02/12 08:56:15;;;;;;;48.38;29.02;;;9.50;99.90;;;;;;5050209;28;20040;-69
2023/02/12 08:58:42;;;;;;;51.75;30.45;;;9.40;99.90;;;;;;5048669;28;20045;-69
2023/02/12 09:01:19;;;;;;;56.10;32.55;;;9.40;99.90;;;;;;5049457;28;20027;-69
2023/02/12 09:03:46;;;;;;;55.97;31.65;;;9.40;99.90;;;;;;5038351;28;20025;-69
2023/02/12 09:06:12;;;;;;;58.22;32.25;;;9.40;99.90;;;;;;5043282;28;20041;-69
2023/02/12 09:08:38;;;;;;;60.60;33.55;;;9.60;99.90;;;;;;5038874;28;20041;-69
2023/02/12 09:11:13;;;;;;;58.78;31.92;;;9.60;99.90;;;;;;5045753;28;20032;-68
2023/02/12 09:13:39;;;;;;;56.00;30.67;;;9.60;99.90;;;;;;5044179;28;20021;-69
2023/02/12 09:16:06;;;;;;;57.40;31.33;;;9.70;99.90;;;;;;5038049;28;20514;-68
2023/02/12 09:18:32;;;;;;;51.53;29.48;;;9.70;99.90;;;;;;5037940;28;20099;-69
2023/02/12 09:21:03;;;;;;;54.35;31.08;;;9.80;99.90;;;;;;5049633;28;20060;-69
2023/02/12 09:23:29;;;;;;;46.85;27.05;;;9.80;99.90;;;;;;5036259;28;20387;-70
2023/02/12 09:25:54;;;;;;;45.10;27.33;;;9.80;99.90;;;;;;5036663;28;20017;-67
2023/02/12 09:28:20;;;;;;;47.20;27.92;;;9.90;99.90;;;;;;5043559;28;20493;-69
2023/02/12 09:30:46;;;;;;;48.28;27.58;;;9.90;99.90;;;;;;5040765;28;20410;-69
2023/02/12 09:33:11;;;;;;;48.53;27.75;;;9.90;99.90;;;;;;5044650;28;20029;-69
2023/02/12 09:35:38;;;;;;;48.40;27.63;;;9.90;99.90;;;;;;5044322;28;20038;-69
2023/02/12 09:38:05;;;;;;;52.20;30.45;;;9.90;99.90;;;;;;5049434;28;20026;-69
2023/02/12 09:40:45;;;;;;;47.92;28.60;;;9.90;99.90;;;;;;5048396;28;20024;-69
2023/02/12 09:43:35;;;;;;;48.15;28.70;;;9.90;99.90;;;;;;5045353;28;20076;-69
2023/02/12 09:46:19;;;;;;;48.92;29.33;;;9.90;99.90;;;;;;5047516;28;20033;-67
2023/02/12 09:48:57;;;;;;;46.42;27.55;;;9.90;99.90;;;;;;5040014;28;20033;-69
2023/02/12 09:51:23;;;;;;;41.65;24.95;;;10.00;99.90;;;;;;5042840;28;20025;-68
2023/02/12 09:54:06;;;;;;;44.90;26.58;;;10.10;99.90;;;;;;5041081;28;20041;-70
2023/02/12 09:56:33;;;;;;;;;;;10.00;99.90;;;;;;5043395;28;20507;-69
2023/02/12 09:59:02;;;;;;;50.10;25.00;;;10.10;99.90;;;;;;5042647;28;19912;-69
2023/02/12 10:01:29;;;;;;;47.17;27.85;;;10.10;99.90;;;;;;5050391;28;20029;-69
2023/02/12 10:03:55;;;;;;;46.22;26.38;;;10.20;99.90;;;;;;5044427;28;20363;-69
2023/02/12 10:06:25;;;;;;;44.47;26.77;;;10.20;99.90;;;;;;5038685;28;20074;-69
2023/02/12 10:09:01;;;;;;;48.05;27.17;;;10.10;99.90;;;;;;5046113;28;20032;-68
2023/02/12 10:11:51;;;;;;;42.60;26.55;;;10.20;99.90;;;;;;5041688;28;20064;-70
2023/02/12 10:14:49;;;;;;;45.75;27.05;;;10.10;99.90;;;;;;5051164;28;20430;-69
2023/02/12 10:17:41;;;;;;;41.90;25.00;;;10.20;99.90;;;;;;5045097;28;20036;-69
2023/02/12 10:20:25;;;;;;;45.90;26.83;;;10.30;99.90;;;;;;5043373;28;20041;-68
2023/02/12 10:23:18;;;;;;;42.08;25.33;;;10.30;99.90;;;;;;5045216;28;20025;-68
2023/02/12 10:25:54;;;;;;;45.13;26.23;;;10.40;99.90;;;;;;5047271;28;20343;-68
2023/02/12 10:28:37;;;;;;;41.97;25.50;;;10.40;99.90;;;;;;5042808;28;20108;-68
2023/02/12 10:31:27;;;;;;;45.33;26.75;;;10.40;99.90;;;;;;5041177;28;20026;-69
2023/02/12 10:33:55;;;;;;;45.72;27.33;;;10.50;99.90;;;;;;5044127;28;20155;-69
2023/02/12 10:36:30;;;;;;;43.25;25.50;;;10.50;99.90;;;;;;5044406;28;20070;-68
2023/02/12 10:39:18;;;;;;;47.40;25.63;;;10.50;99.90;;;;;;5049277;28;20082;-68
2023/02/12 10:41:58;;;;;;;44.67;26.25;;;10.60;99.90;;;;;;5044658;28;20060;-69
2023/02/12 10:44:23;;;;;;;40.47;23.83;;;10.50;99.90;;;;;;5044788;28;20025;-69
2023/02/12 10:46:49;;;;;;;43.67;25.27;;;10.50;99.90;;;;;;5042789;28;20029;-67
2023/02/12 10:49:17;;;;;;;37.58;21.85;;;10.40;99.90;;;;;;5040928;28;20098;-69
2023/02/12 10:51:57;;;;;;;38.42;22.55;;;10.40;99.90;;;;;;5042090;28;20022;-69
2023/02/12 10:54:35;;;;;;;33.90;20.98;;;10.50;99.90;;;;;;5040312;28;20025;-69
2023/02/12 10:57:11;;;;;;;33.25;20.48;;;10.60;99.90;;;;;;5044490;28;20033;-68
2023/02/12 10:59:38;;;;;;;35.03;19.98;;;10.70;99.90;;;;;;5038682;28;20982;-69
2023/02/12 11:02:19;;;;;;;34.85;19.70;;;10.70;99.90;;;;;;5017390;28;20378;-69
2023/02/12 11:04:45;;;;;;;33.50;19.42;;;10.70;99.90;;;;;;5032345;28;20101;-68
2023/02/12 11:07:11;;;;;;;36.35;20.77;;;10.70;99.90;;;;;;5020872;28;20072;-68
2023/02/12 11:09:45;;;;;;;29.70;18.73;;;10.80;99.90;;;;;;5036160;28;22719;-68
2023/02/12 11:12:21;;;;;;;37.97;19.70;;;10.80;99.90;;;;;;5037255;28;20480;-68
2023/02/12 11:14:49;;;;;;;32.60;18.60;;;10.80;99.90;;;;;;5037375;28;20028;-68
2023/02/12 11:17:24;;;;;;;33.70;19.98;;;10.90;99.90;;;;;;5039293;28;20026;-67
2023/02/12 11:20:21;;;;;;;32.78;19.35;;;10.80;99.90;;;;;;5033520;28;20474;-67
2023/02/12 11:22:56;;;;;;;40.20;20.00;;;10.80;99.90;;;;;;5039170;28;20108;-68
2023/02/12 11:25:23;;;;;;;36.20;20.52;;;10.90;99.90;;;;;;5039983;28;20037;-68
2023/02/12 11:28:09;;;;;;;35.17;19.65;;;10.90;99.90;;;;;;5041506;28;20022;-68
2023/02/12 11:30:35;;;;;;;35.90;20.95;;;10.80;99.90;;;;;;5027705;28;20068;-68
2023/02/12 11:33:24;;;;;;;34.55;20.45;;;10.80;99.90;;;;;;5037362;28;20071;-68
2023/02/12 11:36:04;;;;;;;39.25;20.90;;;10.80;99.90;;;;;;5035163;28;20017;-70
2023/02/12 11:38:34;;;;;;;40.47;21.15;;;10.80;99.90;;;;;;5034780;28;20435;-70
2023/02/12 11:41:06;;;;;;;36.92;21.05;;;10.80;99.90;;;;;;5036399;28;20562;-70
2023/02/12 11:43:36;;;;;;;33.90;21.23;;;10.90;99.90;;;;;;5036945;28;20381;-70
2023/02/12 11:46:02;;;;;;;32.70;20.15;;;11.00;99.90;;;;;;5037396;28;20072;-69
2023/02/12 11:48:33;;;;;;;33.60;20.38;;;11.00;99.90;;;;;;5033520;28;20037;-70
2023/02/12 11:51:02;;;;;;;32.67;19.95;;;11.00;99.90;;;;;;5039018;28;20043;-71
2023/02/12 11:53:41;;;;;;;36.42;21.20;;;11.00;99.90;;;;;;5042755;28;20037;-70
2023/02/12 11:56:10;;;;;;;34.50;20.85;;;10.90;99.90;;;;;;5040863;28;20030;-70
2023/02/12 11:58:36;;;;;;;34.88;21.80;;;11.00;99.90;;;;;;5046009;28;20045;-68
2023/02/12 12:01:13;;;;;;;31.15;17.25;;;11.00;99.90;;;;;;5040557;28;20473;-69
2023/02/12 12:04:17;;;;;;;36.42;21.40;;;11.00;99.90;;;;;;5044963;28;20595;-68
2023/02/12 12:06:45;;;;;;;37.17;21.00;;;11.10;99.90;;;;;;5047552;28;20445;-68
2023/02/12 12:09:38;;;;;;;36.38;21.27;;;11.10;99.90;;;;;;5049215;28;20485;-69
2023/02/12 12:12:04;;;;;;;39.28;22.05;;;11.10;99.90;;;;;;5038983;28;20021;-68
2023/02/12 12:20:51;;;;;;;34.15;20.85;;;11.20;99.90;;;;;;5039894;28;20090;-69
2023/02/12 12:23:39;;;;;;;41.67;22.65;;;11.30;99.90;;;;;;5043672;28;20047;-68
2023/02/12 12:26:13;;;;;;;35.75;20.70;;;11.30;99.90;;;;;;5040266;28;20030;-68
2023/02/12 12:29:08;;;;;;;37.28;21.63;;;11.30;99.90;;;;;;5036824;28;20500;-69
2023/02/12 12:31:39;;;;;;;42.40;23.48;;;11.40;99.90;;;;;;5035084;28;20097;-67
2023/02/12 12:34:16;;;;;;;37.72;22.17;;;11.40;99.90;;;;;;5038609;28;20589;-69
2023/02/12 12:37:01;;;;;;;40.53;22.80;;;11.40;99.90;;;;;;5040540;28;20398;-67
2023/02/12 12:39:29;;;;;;;41.10;22.98;;;11.30;99.90;;;;;;5037912;28;20485;-67
2023/02/12 12:41:58;;;;;;;43.70;23.27;;;11.30;99.90;;;;;;5038088;28;20140;-68
2023/02/12 12:44:51;;;;;;;41.40;23.33;;;11.40;99.90;;;;;;5045588;28;20106;-67
2023/02/12 12:48:06;;;;;;;45.15;23.92;;;11.40;99.90;;;;;;5048725;28;20030;-67
2023/02/12 12:50:48;;;;;;;40.45;24.17;;;11.30;99.90;;;;;;5044694;28;20045;-67
2023/02/12 12:53:29;;;;;;;39.70;22.55;;;11.40;99.90;;;;;;5038761;28;20061;-67
2023/02/12 12:56:07;;;;;;;43.42;23.25;;;11.20;99.90;;;;;;5040711;28;20037;-68
2023/02/12 12:59:04;;;;;;;43.78;25.33;;;11.30;99.90;;;;;;5039467;28;20079;-67
2023/02/12 13:01:56;;;;;;;44.65;23.77;;;11.20;99.90;;;;;;5038371;28;20226;-67
2023/02/12 13:04:51;;;;;;;38.55;22.65;;;11.20;99.90;;;;;;5031625;28;20099;-70
2023/02/12 13:07:22;;;;;;;46.47;23.48;;;11.30;99.90;;;;;;5043357;28;20027;-66
2023/02/12 13:10:01;;;;;;;39.17;23.17;;;11.20;99.90;;;;;;5042500;28;21548;-69
2023/02/12 13:12:51;;;;;;;46.28;24.05;;;11.30;99.90;;;;;;5042249;28;20056;-67